sensor_id;sensor_type;location;lat;lon;timestamp;temperature;humidity
12761;DHT22;6444;49.742;6.114;2023-04-24T00:01:23;10.90;99.90
12761;DHT22;6444;49.742;6.114;2023-04-24T00:03:50;11.00;99.90
12761;DHT22;6444;49.742;6.114;2023-04-24T00:06:17;10.80;99.90
12761;DHT22;6444;49.742;6.114;2023-04-24T00:08:43;10.80;99.90
12761;DHT22;6444;49.742;6.114;2023-04-24T00:11:10;10.80;99.90
12761;DHT22;6444;49.742;6.114;2023-04-24T00:13:37;11.10;99.90
12761;DHT22;6444;49.742;6.114;2023-04-24T00:16:03;11.00;99.90
12761;DHT22;6444;49.742;6.114;2023-04-24T00:18:30;10.70;99.90
12761;DHT22;6444;49.742;6.114;2023-04-24T00:20:57;10.70;99.90
12761;DHT22;6444;49.742;6.114;2023-04-24T00:23:23;11.00;99.90
12761;DHT22;6444;49.742;6.114;2023-04-24T00:25:51;10.50;99.90
12761;DHT22;6444;49.742;6.114;2023-04-24T00:28:17;10.50;99.90
12761;DHT22;6444;49.742;6.114;2023-04-24T00:30:44;10.40;99.90
12761;DHT22;6444;49.742;6.114;2023-04-24T00:33:11;10.50;99.90
12761;DHT22;6444;49.742;6.114;2023-04-24T00:35:37;10.70;99.90
12761;DHT22;6444;49.742;6.114;2023-04-24T00:38:04;10.70;99.90
12761;DHT22;6444;49.742;6.114;2023-04-24T00:40:30;10.30;99.90
12761;DHT22;6444;49.742;6.114;2023-04-24T00:42:57;10.40;99.90
12761;DHT22;6444;49.742;6.114;2023-04-24T00:45:24;10.60;99.90
12761;DHT22;6444;49.742;6.114;2023-04-24T00:47:51;10.60;99.90
12761;DHT22;6444;49.742;6.114;2023-04-24T00:50:18;10.40;99.90
12761;DHT22;6444;49.742;6.114;2023-04-24T00:52:44;10.30;99.90
12761;DHT22;6444;49.742;6.114;2023-04-24T00:55:11;10.20;99.90
12761;DHT22;6444;49.742;6.114;2023-04-24T00:57:38;10.30;99.90
12761;DHT22;6444;49.742;6.114;2023-04-24T01:00:05;9.90;99.90
12761;DHT22;6444;49.742;6.114;2023-04-24T01:02:32;9.80;99.90
12761;DHT22;6444;49.742;6.114;2023-04-24T01:04:59;10.10;99.90
12761;DHT22;6444;49.742;6.114;2023-04-24T01:07:25;10.20;99.90
12761;DHT22;6444;49.742;6.114;2023-04-24T01:09:52;10.30;99.90
12761;DHT22;6444;49.742;6.114;2023-04-24T01:12:19;10.20;99.90
12761;DHT22;6444;49.742;6.114;2023-04-24T01:14:46;10.20;99.90
12761;DHT22;6444;49.742;6.114;2023-04-24T01:17:13;10.40;99.90
12761;DHT22;6444;49.742;6.114;2023-04-24T01:19:39;10.50;99.90
12761;DHT22;6444;49.742;6.114;2023-04-24T01:22:13;10.20;99.90
12761;DHT22;6444;49.742;6.114;2023-04-24T01:24:39;10.20;99.90
12761;DHT22;6444;49.742;6.114;2023-04-24T01:27:06;10.00;99.90
12761;DHT22;6444;49.742;6.114;2023-04-24T01:29:32;9.90;99.90
12761;DHT22;6444;49.742;6.114;2023-04-24T01:31:59;9.60;99.90
12761;DHT22;6444;49.742;6.114;2023-04-24T01:34:26;9.50;99.90
12761;DHT22;6444;49.742;6.114;2023-04-24T01:36:52;9.40;99.90
12761;DHT22;6444;49.742;6.114;2023-04-24T01:39:19;9.20;99.90
12761;DHT22;6444;49.742;6.114;2023-04-24T01:41:46;9.10;99.90
12761;DHT22;6444;49.742;6.114;2023-04-24T01:44:12;9.50;99.90
12761;DHT22;6444;49.742;6.114;2023-04-24T01:46:39;9.80;99.90
12761;DHT22;6444;49.742;6.114;2023-04-24T01:49:05;9.40;99.90
12761;DHT22;6444;49.742;6.114;2023-04-24T01:51:32;9.40;99.90
12761;DHT22;6444;49.742;6.114;2023-04-24T01:54:00;9.50;99.90
12761;DHT22;6444;49.742;6.114;2023-04-24T01:56:28;9.40;99.90
12761;DHT22;6444;49.742;6.114;2023-04-24T01:58:53;9.90;99.90
12761;DHT22;6444;49.742;6.114;2023-04-24T02:01:20;10.10;99.90
12761;DHT22;6444;49.742;6.114;2023-04-24T02:03:46;10.10;99.90
12761;DHT22;6444;49.742;6.114;2023-04-24T02:06:13;9.70;99.90
12761;DHT22;6444;49.742;6.114;2023-04-24T02:08:39;9.60;99.90
12761;DHT22;6444;49.742;6.114;2023-04-24T02:11:06;9.30;99.90
12761;DHT22;6444;49.742;6.114;2023-04-24T02:13:33;9.30;99.90
12761;DHT22;6444;49.742;6.114;2023-04-24T02:16:00;9.50;99.90
12761;DHT22;6444;49.742;6.114;2023-04-24T02:18:27;9.50;99.90
12761;DHT22;6444;49.742;6.114;2023-04-24T02:20:54;9.80;99.90
12761;DHT22;6444;49.742;6.114;2023-04-24T02:23:21;9.80;99.90
12761;DHT22;6444;49.742;6.114;2023-04-24T02:25:47;9.50;99.90
12761;DHT22;6444;49.742;6.114;2023-04-24T02:28:14;9.10;99.90
12761;DHT22;6444;49.742;6.114;2023-04-24T02:30:41;9.00;99.90
12761;DHT22;6444;49.742;6.114;2023-04-24T02:33:08;9.10;99.90
12761;DHT22;6444;49.742;6.114;2023-04-24T02:35:35;9.10;99.90
12761;DHT22;6444;49.742;6.114;2023-04-24T02:38:01;9.10;99.90
12761;DHT22;6444;49.742;6.114;2023-04-24T02:40:29;8.80;99.90
12761;DHT22;6444;49.742;6.114;2023-04-24T02:42:55;8.80;99.90
12761;DHT22;6444;49.742;6.114;2023-04-24T02:45:22;9.20;99.90
12761;DHT22;6444;49.742;6.114;2023-04-24T02:47:48;9.40;99.90
12761;DHT22;6444;49.742;6.114;2023-04-24T02:50:15;9.40;99.90
12761;DHT22;6444;49.742;6.114;2023-04-24T02:52:42;9.30;99.90
12761;DHT22;6444;49.742;6.114;2023-04-24T02:55:08;9.10;99.90
12761;DHT22;6444;49.742;6.114;2023-04-24T02:57:35;9.00;99.90
12761;DHT22;6444;49.742;6.114;2023-04-24T03:00:02;8.90;99.90
12761;DHT22;6444;49.742;6.114;2023-04-24T03:02:28;9.00;99.90
12761;DHT22;6444;49.742;6.114;2023-04-24T03:04:55;8.90;99.90
12761;DHT22;6444;49.742;6.114;2023-04-24T03:07:22;9.10;99.90
12761;DHT22;6444;49.742;6.114;2023-04-24T03:09:48;9.70;99.90
12761;DHT22;6444;49.742;6.114;2023-04-24T03:12:15;9.40;99.90
12761;DHT22;6444;49.742;6.114;2023-04-24T03:14:42;9.30;99.90
12761;DHT22;6444;49.742;6.114;2023-04-24T03:17:08;9.30;99.90
12761;DHT22;6444;49.742;6.114;2023-04-24T03:19:35;9.60;99.90
12761;DHT22;6444;49.742;6.114;2023-04-24T03:22:02;9.70;99.90
12761;DHT22;6444;49.742;6.114;2023-04-24T03:24:29;9.70;99.90
12761;DHT22;6444;49.742;6.114;2023-04-24T03:26:56;9.60;99.90
12761;DHT22;6444;49.742;6.114;2023-04-24T03:29:22;9.70;99.90
12761;DHT22;6444;49.742;6.114;2023-04-24T03:31:49;9.60;99.90
12761;DHT22;6444;49.742;6.114;2023-04-24T03:34:15;10.20;99.90
12761;DHT22;6444;49.742;6.114;2023-04-24T03:36:42;10.50;99.90
12761;DHT22;6444;49.742;6.114;2023-04-24T03:39:09;10.10;99.90
12761;DHT22;6444;49.742;6.114;2023-04-24T03:41:35;9.80;99.90
12761;DHT22;6444;49.742;6.114;2023-04-24T03:44:02;9.80;99.90
12761;DHT22;6444;49.742;6.114;2023-04-24T03:46:29;9.70;99.90
12761;DHT22;6444;49.742;6.114;2023-04-24T03:48:55;9.80;99.90
12761;DHT22;6444;49.742;6.114;2023-04-24T03:51:22;9.60;99.90
12761;DHT22;6444;49.742;6.114;2023-04-24T03:53:49;9.10;99.90
12761;DHT22;6444;49.742;6.114;2023-04-24T03:56:15;9.10;99.90
12761;DHT22;6444;49.742;6.114;2023-04-24T03:58:42;9.00;99.90
12761;DHT22;6444;49.742;6.114;2023-04-24T04:01:09;9.70;99.90
12761;DHT22;6444;49.742;6.114;2023-04-24T04:03:36;9.60;99.90
12761;DHT22;6444;49.742;6.114;2023-04-24T04:06:02;9.80;99.90
12761;DHT22;6444;49.742;6.114;2023-04-24T04:08:29;9.50;99.90
12761;DHT22;6444;49.742;6.114;2023-04-24T04:10:56;9.20;99.90
12761;DHT22;6444;49.742;6.114;2023-04-24T04:13:22;8.90;99.90
12761;DHT22;6444;49.742;6.114;2023-04-24T04:15:49;8.60;99.90
12761;DHT22;6444;49.742;6.114;2023-04-24T04:18:16;8.70;99.90
12761;DHT22;6444;49.742;6.114;2023-04-24T04:20:42;9.00;99.90
12761;DHT22;6444;49.742;6.114;2023-04-24T04:23:09;9.00;99.90
12761;DHT22;6444;49.742;6.114;2023-04-24T04:25:35;8.80;99.90
12761;DHT22;6444;49.742;6.114;2023-04-24T04:28:02;8.70;99.90
12761;DHT22;6444;49.742;6.114;2023-04-24T04:30:30;8.50;99.90
12761;DHT22;6444;49.742;6.114;2023-04-24T04:32:56;8.50;99.90
12761;DHT22;6444;49.742;6.114;2023-04-24T04:35:23;8.50;99.90
12761;DHT22;6444;49.742;6.114;2023-04-24T04:37:49;8.50;99.90
12761;DHT22;6444;49.742;6.114;2023-04-24T04:40:16;8.70;99.90
12761;DHT22;6444;49.742;6.114;2023-04-24T04:42:43;8.70;99.90
12761;DHT22;6444;49.742;6.114;2023-04-24T04:45:09;9.00;99.90
12761;DHT22;6444;49.742;6.114;2023-04-24T04:47:36;9.40;99.90
12761;DHT22;6444;49.742;6.114;2023-04-24T04:50:03;9.50;99.90
12761;DHT22;6444;49.742;6.114;2023-04-24T04:52:29;9.10;99.90
12761;DHT22;6444;49.742;6.114;2023-04-24T04:54:56;8.90;99.90
12761;DHT22;6444;49.742;6.114;2023-04-24T04:57:23;9.40;99.90
12761;DHT22;6444;49.742;6.114;2023-04-24T04:59:49;9.40;99.90
12761;DHT22;6444;49.742;6.114;2023-04-24T05:02:16;9.00;99.90
12761;DHT22;6444;49.742;6.114;2023-04-24T05:04:42;9.40;99.90
12761;DHT22;6444;49.742;6.114;2023-04-24T05:07:09;9.50;99.90
12761;DHT22;6444;49.742;6.114;2023-04-24T05:09:36;8.90;99.90
12761;DHT22;6444;49.742;6.114;2023-04-24T05:12:03;8.90;99.90
12761;DHT22;6444;49.742;6.114;2023-04-24T05:14:30;9.10;99.90
12761;DHT22;6444;49.742;6.114;2023-04-24T05:16:56;9.10;99.90
12761;DHT22;6444;49.742;6.114;2023-04-24T05:19:23;9.00;99.90
12761;DHT22;6444;49.742;6.114;2023-04-24T05:21:50;8.70;99.90
12761;DHT22;6444;49.742;6.114;2023-04-24T05:24:16;8.70;99.90
12761;DHT22;6444;49.742;6.114;2023-04-24T05:26:43;9.30;99.90
12761;DHT22;6444;49.742;6.114;2023-04-24T05:29:10;9.40;99.90
12761;DHT22;6444;49.742;6.114;2023-04-24T05:31:36;9.20;99.90
12761;DHT22;6444;49.742;6.114;2023-04-24T05:34:03;8.70;99.90
12761;DHT22;6444;49.742;6.114;2023-04-24T05:36:29;8.50;99.90
12761;DHT22;6444;49.742;6.114;2023-04-24T05:38:56;8.80;99.90
12761;DHT22;6444;49.742;6.114;2023-04-24T05:41:23;8.90;99.90
12761;DHT22;6444;49.742;6.114;2023-04-24T05:43:49;8.80;99.90
12761;DHT22;6444;49.742;6.114;2023-04-24T05:46:16;9.10;99.90
12761;DHT22;6444;49.742;6.114;2023-04-24T05:48:43;9.10;99.90
12761;DHT22;6444;49.742;6.114;2023-04-24T05:51:09;9.50;99.90
12761;DHT22;6444;49.742;6.114;2023-04-24T05:53:36;9.60;99.90
12761;DHT22;6444;49.742;6.114;2023-04-24T05:56:02;9.10;99.90
12761;DHT22;6444;49.742;6.114;2023-04-24T05:58:29;9.30;99.90
12761;DHT22;6444;49.742;6.114;2023-04-24T06:00:56;9.20;99.90
12761;DHT22;6444;49.742;6.114;2023-04-24T06:03:22;9.40;99.90
12761;DHT22;6444;49.742;6.114;2023-04-24T06:05:52;9.00;99.90
12761;DHT22;6444;49.742;6.114;2023-04-24T06:08:16;8.80;99.90
12761;DHT22;6444;49.742;6.114;2023-04-24T06:10:43;9.00;99.90
12761;DHT22;6444;49.742;6.114;2023-04-24T06:13:09;9.40;99.90
12761;DHT22;6444;49.742;6.114;2023-04-24T06:15:36;9.60;99.90
12761;DHT22;6444;49.742;6.114;2023-04-24T06:18:03;9.50;99.90
12761;DHT22;6444;49.742;6.114;2023-04-24T06:20:29;9.20;99.90
12761;DHT22;6444;49.742;6.114;2023-04-24T06:22:56;9.00;99.90
12761;DHT22;6444;49.742;6.114;2023-04-24T06:25:24;9.20;99.90
12761;DHT22;6444;49.742;6.114;2023-04-24T06:27:49;9.10;99.90
12761;DHT22;6444;49.742;6.114;2023-04-24T06:30:16;9.20;99.90
12761;DHT22;6444;49.742;6.114;2023-04-24T06:32:42;9.10;99.90
12761;DHT22;6444;49.742;6.114;2023-04-24T06:35:09;9.20;99.90
12761;DHT22;6444;49.742;6.114;2023-04-24T06:37:35;9.10;99.90
12761;DHT22;6444;49.742;6.114;2023-04-24T06:40:06;9.00;99.90
12761;DHT22;6444;49.742;6.114;2023-04-24T06:42:33;9.00;99.90
12761;DHT22;6444;49.742;6.114;2023-04-24T06:45:00;8.90;99.90
12761;DHT22;6444;49.742;6.114;2023-04-24T06:47:26;9.10;99.90
12761;DHT22;6444;49.742;6.114;2023-04-24T06:49:53;9.10;99.90
12761;DHT22;6444;49.742;6.114;2023-04-24T06:52:20;9.30;99.90
12761;DHT22;6444;49.742;6.114;2023-04-24T06:54:47;9.30;99.90
12761;DHT22;6444;49.742;6.114;2023-04-24T06:57:14;9.60;99.90
12761;DHT22;6444;49.742;6.114;2023-04-24T06:59:40;9.40;99.90
12761;DHT22;6444;49.742;6.114;2023-04-24T07:02:08;9.40;99.90
12761;DHT22;6444;49.742;6.114;2023-04-24T07:04:34;9.30;99.90
12761;DHT22;6444;49.742;6.114;2023-04-24T07:07:01;9.30;99.90
12761;DHT22;6444;49.742;6.114;2023-04-24T07:09:28;9.50;99.90
12761;DHT22;6444;49.742;6.114;2023-04-24T07:11:54;9.20;99.90
12761;DHT22;6444;49.742;6.114;2023-04-24T07:14:21;9.30;99.90
12761;DHT22;6444;49.742;6.114;2023-04-24T07:16:48;9.00;99.90
12761;DHT22;6444;49.742;6.114;2023-04-24T07:19:14;8.80;99.90
12761;DHT22;6444;49.742;6.114;2023-04-24T07:21:41;8.60;99.90
12761;DHT22;6444;49.742;6.114;2023-04-24T07:24:07;8.60;99.90
12761;DHT22;6444;49.742;6.114;2023-04-24T07:26:34;8.50;99.90
12761;DHT22;6444;49.742;6.114;2023-04-24T07:29:01;9.00;99.90
12761;DHT22;6444;49.742;6.114;2023-04-24T07:31:28;9.20;99.90
12761;DHT22;6444;49.742;6.114;2023-04-24T07:33:55;9.50;99.90
12761;DHT22;6444;49.742;6.114;2023-04-24T07:36:21;9.50;99.90
12761;DHT22;6444;49.742;6.114;2023-04-24T07:38:48;9.40;99.90
12761;DHT22;6444;49.742;6.114;2023-04-24T07:41:14;9.30;99.90
12761;DHT22;6444;49.742;6.114;2023-04-24T07:43:41;8.80;99.90
12761;DHT22;6444;49.742;6.114;2023-04-24T07:46:10;9.00;99.90
12761;DHT22;6444;49.742;6.114;2023-04-24T07:48:37;9.00;99.90
12761;DHT22;6444;49.742;6.114;2023-04-24T07:51:04;9.20;99.90
12761;DHT22;6444;49.742;6.114;2023-04-24T07:53:34;9.70;99.90
12761;DHT22;6444;49.742;6.114;2023-04-24T07:56:01;9.70;99.90
12761;DHT22;6444;49.742;6.114;2023-04-24T07:58:30;9.90;99.90
12761;DHT22;6444;49.742;6.114;2023-04-24T08:01:00;9.80;99.90
12761;DHT22;6444;49.742;6.114;2023-04-24T08:03:26;9.80;99.90
12761;DHT22;6444;49.742;6.114;2023-04-24T08:05:53;10.40;99.90
12761;DHT22;6444;49.742;6.114;2023-04-24T08:08:22;10.20;99.90
12761;DHT22;6444;49.742;6.114;2023-04-24T08:10:49;10.30;99.90
12761;DHT22;6444;49.742;6.114;2023-04-24T08:13:16;10.10;99.90
12761;DHT22;6444;49.742;6.114;2023-04-24T08:15:42;10.40;99.90
12761;DHT22;6444;49.742;6.114;2023-04-24T08:18:09;10.90;99.90
12761;DHT22;6444;49.742;6.114;2023-04-24T08:20:36;10.90;99.90
12761;DHT22;6444;49.742;6.114;2023-04-24T08:23:02;11.00;99.90
12761;DHT22;6444;49.742;6.114;2023-04-24T08:25:29;10.80;99.90
12761;DHT22;6444;49.742;6.114;2023-04-24T08:27:55;10.20;99.90
12761;DHT22;6444;49.742;6.114;2023-04-24T08:30:23;10.20;99.90
12761;DHT22;6444;49.742;6.114;2023-04-24T08:32:50;10.20;99.90
12761;DHT22;6444;49.742;6.114;2023-04-24T08:35:16;10.30;99.90
12761;DHT22;6444;49.742;6.114;2023-04-24T08:37:43;10.50;99.90
12761;DHT22;6444;49.742;6.114;2023-04-24T08:40:13;10.80;99.90
12761;DHT22;6444;49.742;6.114;2023-04-24T08:42:40;11.10;99.90
12761;DHT22;6444;49.742;6.114;2023-04-24T08:45:07;11.70;99.90
12761;DHT22;6444;49.742;6.114;2023-04-24T08:47:34;11.70;99.90
12761;DHT22;6444;49.742;6.114;2023-04-24T08:50:02;12.20;99.90
12761;DHT22;6444;49.742;6.114;2023-04-24T08:52:27;12.20;99.90
12761;DHT22;6444;49.742;6.114;2023-04-24T08:54:53;11.90;99.90
12761;DHT22;6444;49.742;6.114;2023-04-24T08:57:20;11.90;99.90
12761;DHT22;6444;49.742;6.114;2023-04-24T08:59:47;11.70;99.90
12761;DHT22;6444;49.742;6.114;2023-04-24T09:02:13;11.90;99.90
12761;DHT22;6444;49.742;6.114;2023-04-24T09:04:40;11.60;99.90
12761;DHT22;6444;49.742;6.114;2023-04-24T09:07:07;11.80;99.90
12761;DHT22;6444;49.742;6.114;2023-04-24T09:09:33;12.10;99.90
12761;DHT22;6444;49.742;6.114;2023-04-24T09:12:00;11.90;99.90
12761;DHT22;6444;49.742;6.114;2023-04-24T09:14:27;11.90;99.90
12761;DHT22;6444;49.742;6.114;2023-04-24T09:16:54;12.20;99.90
12761;DHT22;6444;49.742;6.114;2023-04-24T09:19:21;12.10;99.90
12761;DHT22;6444;49.742;6.114;2023-04-24T09:21:47;12.80;99.90
12761;DHT22;6444;49.742;6.114;2023-04-24T09:24:15;13.20;99.90
12761;DHT22;6444;49.742;6.114;2023-04-24T09:26:41;13.20;99.90
12761;DHT22;6444;49.742;6.114;2023-04-24T09:29:07;13.30;99.90
12761;DHT22;6444;49.742;6.114;2023-04-24T09:31:34;12.60;99.90
12761;DHT22;6444;49.742;6.114;2023-04-24T09:34:02;12.70;99.90
12761;DHT22;6444;49.742;6.114;2023-04-24T09:36:31;13.50;99.90
12761;DHT22;6444;49.742;6.114;2023-04-24T09:38:57;13.60;99.90
12761;DHT22;6444;49.742;6.114;2023-04-24T09:41:20;13.40;99.90
12761;DHT22;6444;49.742;6.114;2023-04-24T09:43:47;13.20;99.90
12761;DHT22;6444;49.742;6.114;2023-04-24T09:46:14;13.40;99.90
12761;DHT22;6444;49.742;6.114;2023-04-24T09:48:40;13.40;99.90
12761;DHT22;6444;49.742;6.114;2023-04-24T09:51:07;14.40;99.90
12761;DHT22;6444;49.742;6.114;2023-04-24T09:53:34;14.70;99.90
12761;DHT22;6444;49.742;6.114;2023-04-24T09:56:08;14.20;99.90
12761;DHT22;6444;49.742;6.114;2023-04-24T09:58:34;14.20;99.90
12761;DHT22;6444;49.742;6.114;2023-04-24T10:01:00;13.90;99.90
12761;DHT22;6444;49.742;6.114;2023-04-24T10:03:29;14.00;99.90
12761;DHT22;6444;49.742;6.114;2023-04-24T10:05:53;14.40;99.90
12761;DHT22;6444;49.742;6.114;2023-04-24T10:08:20;14.40;99.90
12761;DHT22;6444;49.742;6.114;2023-04-24T10:10:47;14.00;99.90
12761;DHT22;6444;49.742;6.114;2023-04-24T10:13:14;15.00;99.90
12761;DHT22;6444;49.742;6.114;2023-04-24T10:15:40;16.40;99.90
12761;DHT22;6444;49.742;6.114;2023-04-24T10:18:07;16.80;99.90
12761;DHT22;6444;49.742;6.114;2023-04-24T10:20:35;16.00;99.90
12761;DHT22;6444;49.742;6.114;2023-04-24T10:23:00;15.50;99.90
12761;DHT22;6444;49.742;6.114;2023-04-24T10:25:28;14.70;99.90
12761;DHT22;6444;49.742;6.114;2023-04-24T10:27:54;14.90;99.90
12761;DHT22;6444;49.742;6.114;2023-04-24T10:30:21;13.80;99.90
12761;DHT22;6444;49.742;6.114;2023-04-24T10:32:48;13.80;99.90
12761;DHT22;6444;49.742;6.114;2023-04-24T10:35:14;13.40;99.90
12761;DHT22;6444;49.742;6.114;2023-04-24T10:37:45;13.50;99.90
12761;DHT22;6444;49.742;6.114;2023-04-24T10:40:08;13.80;99.90
12761;DHT22;6444;49.742;6.114;2023-04-24T10:42:34;13.60;99.90
12761;DHT22;6444;49.742;6.114;2023-04-24T10:45:05;13.60;99.90
12761;DHT22;6444;49.742;6.114;2023-04-24T10:47:39;13.50;99.90
12761;DHT22;6444;49.742;6.114;2023-04-24T10:49:58;14.00;99.90
12761;DHT22;6444;49.742;6.114;2023-04-24T10:52:37;13.00;99.90
12761;DHT22;6444;49.742;6.114;2023-04-24T10:54:52;12.90;99.90
12761;DHT22;6444;49.742;6.114;2023-04-24T11:00:12;14.30;99.90
12761;DHT22;6444;49.742;6.114;2023-04-24T11:02:37;14.30;99.90
12761;DHT22;6444;49.742;6.114;2023-04-24T11:05:03;13.80;99.90
12761;DHT22;6444;49.742;6.114;2023-04-24T11:07:30;14.20;99.90
12761;DHT22;6444;49.742;6.114;2023-04-24T11:09:59;14.90;99.90
12761;DHT22;6444;49.742;6.114;2023-04-24T11:12:25;14.30;99.90
12761;DHT22;6444;49.742;6.114;2023-04-24T11:15:00;14.30;99.90
12761;DHT22;6444;49.742;6.114;2023-04-24T11:17:35;14.40;99.90
12761;DHT22;6444;49.742;6.114;2023-04-24T11:20:02;14.60;99.90
12761;DHT22;6444;49.742;6.114;2023-04-24T11:22:27;13.80;99.90
12761;DHT22;6444;49.742;6.114;2023-04-24T11:24:54;13.70;99.90
12761;DHT22;6444;49.742;6.114;2023-04-24T11:27:21;13.20;99.90
12761;DHT22;6444;49.742;6.114;2023-04-24T11:35:03;13.10;99.90
12761;DHT22;6444;49.742;6.114;2023-04-24T11:37:33;13.10;99.90
12761;DHT22;6444;49.742;6.114;2023-04-24T11:39:56;13.10;99.90
12761;DHT22;6444;49.742;6.114;2023-04-24T11:42:22;13.00;99.90
12761;DHT22;6444;49.742;6.114;2023-04-24T11:44:55;13.10;99.90
12761;DHT22;6444;49.742;6.114;2023-04-24T11:47:30;14.00;99.90
12761;DHT22;6444;49.742;6.114;2023-04-24T11:49:57;15.50;99.90
12761;DHT22;6444;49.742;6.114;2023-04-24T11:52:23;15.40;99.90
12761;DHT22;6444;49.742;6.114;2023-04-24T11:54:50;15.10;99.90
12761;DHT22;6444;49.742;6.114;2023-04-24T11:57:20;15.80;99.90
12761;DHT22;6444;49.742;6.114;2023-04-24T11:59:44;15.80;99.90
12761;DHT22;6444;49.742;6.114;2023-04-24T12:02:19;15.70;99.90
12761;DHT22;6444;49.742;6.114;2023-04-24T12:04:40;15.10;99.90
12761;DHT22;6444;49.742;6.114;2023-04-24T12:07:10;15.40;99.90
12761;DHT22;6444;49.742;6.114;2023-04-24T12:09:46;16.30;99.90
12761;DHT22;6444;49.742;6.114;2023-04-24T12:12:12;17.00;99.90
12761;DHT22;6444;49.742;6.114;2023-04-24T12:14:45;18.00;99.90
12761;DHT22;6444;49.742;6.114;2023-04-24T12:17:09;18.30;99.90
12761;DHT22;6444;49.742;6.114;2023-04-24T12:19:35;18.20;99.90
12761;DHT22;6444;49.742;6.114;2023-04-24T12:22:03;18.30;99.90
12761;DHT22;6444;49.742;6.114;2023-04-24T12:24:29;18.30;99.90
12761;DHT22;6444;49.742;6.114;2023-04-24T12:26:55;18.80;99.90
12761;DHT22;6444;49.742;6.114;2023-04-24T12:29:22;18.80;99.90
12761;DHT22;6444;49.742;6.114;2023-04-24T12:31:49;18.50;99.90
12761;DHT22;6444;49.742;6.114;2023-04-24T12:34:23;18.70;99.90
12761;DHT22;6444;49.742;6.114;2023-04-24T12:36:48;18.60;99.90
12761;DHT22;6444;49.742;6.114;2023-04-24T12:39:16;18.90;99.90
12761;DHT22;6444;49.742;6.114;2023-04-24T12:41:57;17.80;99.90
12761;DHT22;6444;49.742;6.114;2023-04-24T12:44:34;15.40;99.90
12761;DHT22;6444;49.742;6.114;2023-04-24T12:47:01;15.30;99.90
12761;DHT22;6444;49.742;6.114;2023-04-24T12:49:27;15.00;99.90
12761;DHT22;6444;49.742;6.114;2023-04-24T12:51:54;15.20;99.90
12761;DHT22;6444;49.742;6.114;2023-04-24T12:54:20;14.50;99.90
12761;DHT22;6444;49.742;6.114;2023-04-24T12:56:47;14.90;99.90
12761;DHT22;6444;49.742;6.114;2023-04-24T12:59:13;16.50;99.90
12761;DHT22;6444;49.742;6.114;2023-04-24T13:01:41;17.60;99.90
12761;DHT22;6444;49.742;6.114;2023-04-24T13:04:07;17.90;99.90
12761;DHT22;6444;49.742;6.114;2023-04-24T13:06:33;17.40;99.90
12761;DHT22;6444;49.742;6.114;2023-04-24T13:09:01;17.10;99.90
12761;DHT22;6444;49.742;6.114;2023-04-24T13:11:28;17.00;99.90
12761;DHT22;6444;49.742;6.114;2023-04-24T13:13:54;16.50;99.90
12761;DHT22;6444;49.742;6.114;2023-04-24T13:16:21;16.50;99.90
12761;DHT22;6444;49.742;6.114;2023-04-24T13:18:48;16.80;99.90
12761;DHT22;6444;49.742;6.114;2023-04-24T13:21:14;16.90;99.90
12761;DHT22;6444;49.742;6.114;2023-04-24T13:23:41;16.70;99.90
12761;DHT22;6444;49.742;6.114;2023-04-24T13:26:08;16.80;99.90
12761;DHT22;6444;49.742;6.114;2023-04-24T13:28:34;16.30;99.90
12761;DHT22;6444;49.742;6.114;2023-04-24T13:31:02;16.30;99.90
12761;DHT22;6444;49.742;6.114;2023-04-24T13:33:28;16.30;99.90
12761;DHT22;6444;49.742;6.114;2023-04-24T13:35:55;16.80;99.90
12761;DHT22;6444;49.742;6.114;2023-04-24T13:38:22;16.20;99.90
12761;DHT22;6444;49.742;6.114;2023-04-24T13:40:48;15.80;99.90
12761;DHT22;6444;49.742;6.114;2023-04-24T13:43:16;15.30;99.90
12761;DHT22;6444;49.742;6.114;2023-04-24T13:45:42;15.20;99.90
12761;DHT22;6444;49.742;6.114;2023-04-24T13:48:09;14.70;99.90
12761;DHT22;6444;49.742;6.114;2023-04-24T13:50:35;14.40;99.90
12761;DHT22;6444;49.742;6.114;2023-04-24T13:53:02;14.20;99.90
12761;DHT22;6444;49.742;6.114;2023-04-24T13:55:29;13.70;99.90
12761;DHT22;6444;49.742;6.114;2023-04-24T13:57:56;13.20;99.90
12761;DHT22;6444;49.742;6.114;2023-04-24T14:00:23;13.20;99.90
12761;DHT22;6444;49.742;6.114;2023-04-24T14:02:49;13.10;99.90
12761;DHT22;6444;49.742;6.114;2023-04-24T14:05:16;13.20;99.90
12761;DHT22;6444;49.742;6.114;2023-04-24T14:07:43;13.00;99.90
12761;DHT22;6444;49.742;6.114;2023-04-24T14:10:10;13.00;99.90
12761;DHT22;6444;49.742;6.114;2023-04-24T14:12:37;13.70;99.90
12761;DHT22;6444;49.742;6.114;2023-04-24T14:15:04;14.10;99.90
12761;DHT22;6444;49.742;6.114;2023-04-24T14:17:30;13.80;99.90
12761;DHT22;6444;49.742;6.114;2023-04-24T14:19:57;13.80;99.90
12761;DHT22;6444;49.742;6.114;2023-04-24T14:22:23;13.70;99.90
12761;DHT22;6444;49.742;6.114;2023-04-24T14:24:50;14.30;99.90
12761;DHT22;6444;49.742;6.114;2023-04-24T14:27:17;14.00;99.90
12761;DHT22;6444;49.742;6.114;2023-04-24T14:29:43;14.00;99.90
12761;DHT22;6444;49.742;6.114;2023-04-24T14:32:10;13.80;99.90
12761;DHT22;6444;49.742;6.114;2023-04-24T14:34:36;13.80;99.90
12761;DHT22;6444;49.742;6.114;2023-04-24T14:37:03;13.70;99.90
12761;DHT22;6444;49.742;6.114;2023-04-24T14:39:30;13.20;99.90
12761;DHT22;6444;49.742;6.114;2023-04-24T14:41:56;12.70;99.90
12761;DHT22;6444;49.742;6.114;2023-04-24T14:44:24;12.30;99.90
12761;DHT22;6444;49.742;6.114;2023-04-24T14:46:50;12.20;99.90
12761;DHT22;6444;49.742;6.114;2023-04-24T14:49:17;12.60;99.90
12761;DHT22;6444;49.742;6.114;2023-04-24T14:51:44;12.50;99.90
12761;DHT22;6444;49.742;6.114;2023-04-24T14:54:10;12.30;99.90
12761;DHT22;6444;49.742;6.114;2023-04-24T14:56:38;11.80;99.90
12761;DHT22;6444;49.742;6.114;2023-04-24T14:59:04;11.70;99.90
12761;DHT22;6444;49.742;6.114;2023-04-24T15:01:31;11.40;99.90
12761;DHT22;6444;49.742;6.114;2023-04-24T15:03:57;11.20;99.90
12761;DHT22;6444;49.742;6.114;2023-04-24T15:06:24;11.20;99.90
12761;DHT22;6444;49.742;6.114;2023-04-24T15:08:51;11.50;99.90
12761;DHT22;6444;49.742;6.114;2023-04-24T15:11:18;11.40;99.90
12761;DHT22;6444;49.742;6.114;2023-04-24T15:13:45;11.10;99.90
12761;DHT22;6444;49.742;6.114;2023-04-24T15:16:11;10.70;99.90
12761;DHT22;6444;49.742;6.114;2023-04-24T15:18:38;10.40;99.90
12761;DHT22;6444;49.742;6.114;2023-04-24T15:21:05;10.70;99.90
12761;DHT22;6444;49.742;6.114;2023-04-24T15:23:32;10.60;99.90
12761;DHT22;6444;49.742;6.114;2023-04-24T15:25:59;10.90;99.90
12761;DHT22;6444;49.742;6.114;2023-04-24T15:28:25;11.30;99.90
12761;DHT22;6444;49.742;6.114;2023-04-24T15:30:53;11.40;99.90
12761;DHT22;6444;49.742;6.114;2023-04-24T15:33:19;11.30;99.90
12761;DHT22;6444;49.742;6.114;2023-04-24T15:35:46;11.30;99.90
12761;DHT22;6444;49.742;6.114;2023-04-24T15:38:13;11.40;99.90
12761;DHT22;6444;49.742;6.114;2023-04-24T15:40:39;11.60;99.90
12761;DHT22;6444;49.742;6.114;2023-04-24T15:43:07;11.80;99.90
12761;DHT22;6444;49.742;6.114;2023-04-24T15:45:33;11.70;99.90
12761;DHT22;6444;49.742;6.114;2023-04-24T15:48:00;11.80;99.90
12761;DHT22;6444;49.742;6.114;2023-04-24T15:50:26;11.90;99.90
12761;DHT22;6444;49.742;6.114;2023-04-24T15:52:53;12.00;99.90
12761;DHT22;6444;49.742;6.114;2023-04-24T15:55:20;12.40;99.90
12761;DHT22;6444;49.742;6.114;2023-04-24T15:57:47;12.50;99.90